createdAt,value
2023-03-28T00:01:03.641Z,1.17
2023-03-28T00:03:35.926Z,1.15
2023-03-28T00:06:05.712Z,1.10
2023-03-28T00:08:33.646Z,1.08
2023-03-28T00:11:20.981Z,1.10
2023-03-28T00:14:01.208Z,1.08
2023-03-28T00:16:32.594Z,1.04
2023-03-28T00:19:11.760Z,1.00
2023-03-28T00:21:41.599Z,0.97
2023-03-28T00:24:14.846Z,1.01
2023-03-28T00:26:43.510Z,1.01
2023-03-28T00:29:15.948Z,0.98
2023-03-28T00:31:43.319Z,1.00
2023-03-28T00:34:10.800Z,1.02
2023-03-28T00:36:39.076Z,0.98
2023-03-28T00:39:10.485Z,0.93
2023-03-28T00:41:40.291Z,0.95
2023-03-28T00:44:43.353Z,1.01
2023-03-28T00:47:30.940Z,1.00
2023-03-28T00:50:03.148Z,0.99
2023-03-28T00:52:44.677Z,0.94
2023-03-28T00:55:19.565Z,0.96
2023-03-28T00:57:48.213Z,0.99
2023-03-28T01:00:18.971Z,1.01
2023-03-28T01:02:52.465Z,0.96
2023-03-28T01:05:25.261Z,0.93
2023-03-28T01:07:56.100Z,0.87
2023-03-28T01:10:24.310Z,0.86
2023-03-28T01:12:52.581Z,0.77
2023-03-28T01:15:20.483Z,0.68
2023-03-28T01:17:50.834Z,0.61
2023-03-28T01:20:32.694Z,0.56
2023-03-28T01:23:06.306Z,0.53
2023-03-28T01:25:49.192Z,0.45
2023-03-28T01:28:19.802Z,0.45
2023-03-28T01:31:14.661Z,0.42
2023-03-28T01:34:04.882Z,0.36
2023-03-28T01:36:48.286Z,0.33
2023-03-28T01:39:25.023Z,0.24
2023-03-28T01:42:21.565Z,0.31
2023-03-28T01:44:58.560Z,0.31
2023-03-28T01:47:41.401Z,0.27
2023-03-28T01:50:09.305Z,0.23
2023-03-28T01:53:07.849Z,0.22
2023-03-28T01:56:03.187Z,0.29
2023-03-28T01:58:39.808Z,0.30
2023-03-28T02:01:24.726Z,0.23
2023-03-28T02:03:57.739Z,0.25
2023-03-28T02:06:28.420Z,0.25
2023-03-28T02:08:58.082Z,0.33
2023-03-28T02:11:27.952Z,0.31
2023-03-28T02:14:02.454Z,0.30
2023-03-28T02:16:42.287Z,0.29
2023-03-28T02:19:11.320Z,0.32
2023-03-28T02:21:45.661Z,0.29
2023-03-28T02:24:13.690Z,0.29
2023-03-28T02:26:41.665Z,0.29
2023-03-28T02:29:09.418Z,0.29
2023-03-28T02:31:37.746Z,0.24
2023-03-28T02:34:05.055Z,0.23
2023-03-28T02:36:52.288Z,0.21
2023-03-28T02:39:38.190Z,0.24
2023-03-28T02:42:26.543Z,0.25
2023-03-28T02:45:14.948Z,0.14
2023-03-28T02:47:56.692Z,0.18
2023-03-28T02:50:36.348Z,0.20
2023-03-28T02:53:38.872Z,0.14
2023-03-28T02:56:12.052Z,0.12
2023-03-28T02:58:58.566Z,0.15
2023-03-28T03:01:29.493Z,0.11
2023-03-28T03:03:58.556Z,0.11
2023-03-28T03:06:26.256Z,0.10
2023-03-28T03:08:53.536Z,0.07
2023-03-28T03:11:25.131Z,0.06
2023-03-28T03:13:52.609Z,0.09
2023-03-28T03:16:19.929Z,0.04
2023-03-28T03:18:48.063Z,0.07
2023-03-28T03:21:16.668Z,0.05
2023-03-28T03:23:43.928Z,0.03
2023-03-28T03:26:12.014Z,-0.01
2023-03-28T03:28:41.220Z,0.03
2023-03-28T03:31:09.135Z,-0.05
2023-03-28T03:33:41.685Z,-0.09
2023-03-28T03:36:12.784Z,-0.09
2023-03-28T03:38:41.157Z,-0.15
2023-03-28T03:41:08.993Z,-0.19
2023-03-28T03:43:36.497Z,-0.18
2023-03-28T03:46:03.952Z,-0.24
2023-03-28T03:48:31.774Z,-0.19
2023-03-28T03:50:59.379Z,-0.18
2023-03-28T03:53:28.447Z,-0.19
2023-03-28T03:56:01.715Z,-0.23
2023-03-28T03:58:34.135Z,-0.14
2023-03-28T04:01:05.508Z,-0.15
2023-03-28T04:03:34.389Z,-0.14
2023-03-28T04:06:05.326Z,-0.20
2023-03-28T04:08:33.508Z,-0.23
2023-03-28T04:11:01.573Z,-0.21
2023-03-28T04:13:32.768Z,-0.23
2023-03-28T04:16:01.522Z,-0.25
2023-03-28T04:18:29.881Z,-0.27
2023-03-28T04:20:59.865Z,-0.25
2023-03-28T04:23:28.383Z,-0.26
2023-03-28T04:26:01.091Z,-0.30
2023-03-28T04:28:39.328Z,-0.26
2023-03-28T04:31:07.492Z,-0.23
2023-03-28T04:33:36.256Z,-0.20
2023-03-28T04:36:04.405Z,-0.23
2023-03-28T04:38:36.338Z,-0.21
2023-03-28T04:41:05.513Z,-0.21
2023-03-28T04:43:37.404Z,-0.15
2023-03-28T04:46:05.576Z,-0.17
2023-03-28T04:48:33.422Z,-0.12
2023-03-28T04:51:00.990Z,-0.05
2023-03-28T04:53:30.419Z,0.00
2023-03-28T04:56:00.339Z,-0.01
2023-03-28T04:58:29.402Z,0.10
2023-03-28T05:00:57.253Z,0.11
2023-03-28T05:03:25.645Z,0.16
2023-03-28T05:05:55.753Z,0.19
2023-03-28T05:08:26.065Z,0.25
2023-03-28T05:10:55.200Z,0.24
2023-03-28T05:13:23.126Z,0.27
2023-03-28T05:15:53.230Z,0.34
2023-03-28T05:18:21.382Z,0.39
2023-03-28T05:20:48.921Z,0.36
2023-03-28T05:23:16.374Z,0.43
2023-03-28T05:25:51.376Z,0.49
2023-03-28T05:28:19.648Z,0.53
2023-03-28T05:30:47.486Z,0.54
2023-03-28T05:33:16.072Z,0.62
2023-03-28T05:35:44.209Z,0.70
2023-03-28T05:38:11.763Z,0.73
2023-03-28T05:40:39.165Z,0.75
2023-03-28T05:43:06.821Z,0.75
2023-03-28T05:45:34.376Z,0.80
2023-03-28T05:48:01.862Z,0.78
2023-03-28T05:50:29.897Z,0.83
2023-03-28T05:53:00.456Z,0.95
2023-03-28T05:55:27.709Z,0.93
2023-03-28T05:57:57.620Z,1.03
2023-03-28T06:00:28.295Z,1.03
2023-03-28T06:02:56.673Z,1.05
2023-03-28T06:05:29.847Z,1.12
2023-03-28T06:07:57.437Z,1.16
2023-03-28T06:10:25.873Z,1.26
2023-03-28T06:12:54.636Z,1.33
2023-03-28T06:15:23.448Z,1.39
2023-03-28T06:17:50.947Z,1.49
2023-03-28T06:20:18.437Z,1.59
2023-03-28T06:22:46.325Z,1.93
2023-03-28T06:25:13.607Z,3.89
2023-03-28T06:27:41.128Z,6.17
2023-03-28T06:30:09.137Z,7.54
2023-03-28T06:32:37.003Z,9.00
2023-03-28T06:35:04.888Z,8.79
2023-03-28T06:37:33.013Z,10.31
2023-03-28T06:40:01.182Z,11.24
2023-03-28T06:42:28.771Z,9.47
2023-03-28T06:44:58.101Z,9.68
2023-03-28T06:47:26.355Z,9.30
2023-03-28T06:49:53.996Z,9.62
2023-03-28T06:52:26.457Z,8.73
2023-03-28T06:54:54.081Z,8.79
2023-03-28T06:57:21.816Z,9.41
2023-03-28T06:59:51.649Z,8.99
2023-03-28T07:02:19.505Z,9.01
2023-03-28T07:04:47.929Z,9.09
2023-03-28T07:07:15.657Z,7.77
2023-03-28T07:09:43.057Z,7.49
2023-03-28T07:12:10.887Z,8.50
2023-03-28T07:14:40.445Z,8.93
2023-03-28T07:17:07.792Z,9.36
2023-03-28T07:19:35.635Z,9.75
2023-03-28T07:22:03.198Z,9.66
2023-03-28T07:24:30.891Z,9.60
2023-03-28T07:27:07.998Z,8.55
2023-03-28T07:29:42.774Z,8.45
2023-03-28T07:32:12.612Z,7.36
2023-03-28T07:34:40.402Z,6.47
2023-03-28T07:37:09.733Z,6.61
2023-03-28T07:39:40.082Z,6.19
2023-03-28T07:42:11.594Z,6.11
2023-03-28T07:44:41.825Z,5.47
2023-03-28T07:47:10.285Z,5.61
2023-03-28T07:49:37.773Z,5.47
2023-03-28T07:52:08.389Z,5.23
2023-03-28T07:54:35.822Z,5.16
2023-03-28T07:57:03.166Z,4.84
2023-03-28T07:59:31.280Z,5.50
2023-03-28T08:02:00.426Z,6.12
2023-03-28T08:04:28.189Z,6.20
2023-03-28T08:06:56.853Z,5.71
2023-03-28T08:09:24.251Z,5.81
2023-03-28T08:11:53.447Z,6.52
2023-03-28T08:14:20.897Z,6.30
2023-03-28T08:16:49.035Z,6.56
2023-03-28T08:19:16.622Z,5.90
2023-03-28T08:21:44.972Z,5.31
2023-03-28T08:24:19.554Z,4.65
2023-03-28T08:26:53.367Z,4.57
2023-03-28T08:29:20.790Z,4.94
2023-03-28T08:31:49.463Z,5.24
2023-03-28T08:34:17.252Z,6.25
2023-03-28T08:36:44.651Z,6.90
2023-03-28T08:39:13.036Z,6.77
2023-03-28T08:41:52.779Z,7.65
2023-03-28T08:44:32.274Z,7.92
2023-03-28T08:47:27.566Z,7.68
2023-03-28T08:50:02.963Z,8.28
2023-03-28T08:52:31.790Z,8.29
2023-03-28T08:55:06.334Z,7.28
2023-03-28T08:57:35.127Z,7.28
2023-03-28T09:00:15.281Z,7.47
2023-03-28T09:02:44.140Z,7.32
2023-03-28T09:05:23.588Z,7.24
2023-03-28T09:08:02.888Z,6.68
2023-03-28T09:10:51.934Z,6.01
2023-03-28T09:13:48.288Z,5.48
2023-03-28T09:16:26.000Z,6.29
2023-03-28T09:18:56.695Z,5.86
2023-03-28T09:21:27.819Z,5.70
2023-03-28T09:24:07.874Z,5.60
2023-03-28T09:27:02.201Z,6.14
2023-03-28T09:29:32.478Z,6.85
2023-03-28T09:32:16.092Z,7.00
2023-03-28T09:34:52.033Z,6.60
2023-03-28T09:37:30.401Z,6.11
2023-03-28T09:40:12.729Z,6.27
2023-03-28T09:42:44.201Z,6.43
2023-03-28T09:45:27.013Z,6.64
2023-03-28T09:48:05.919Z,6.55
2023-03-28T09:50:36.256Z,7.45
2023-03-28T09:53:04.962Z,8.48
2023-03-28T09:55:35.497Z,8.62
2023-03-28T09:58:09.932Z,8.31
2023-03-28T10:00:49.230Z,8.29
2023-03-28T10:03:29.631Z,8.15
2023-03-28T10:06:01.143Z,7.79
2023-03-28T10:08:34.975Z,7.81
2023-03-28T10:11:04.318Z,7.88
2023-03-28T10:13:41.941Z,7.23
2023-03-28T10:16:14.445Z,7.04
2023-03-28T10:18:44.893Z,6.66
2023-03-28T10:21:19.024Z,6.42
2023-03-28T10:23:56.436Z,6.24
2023-03-28T10:26:26.127Z,6.21
2023-03-28T10:28:55.587Z,6.03
2023-03-28T10:31:31.983Z,5.99
2023-03-28T10:34:02.930Z,6.43
2023-03-28T10:36:37.614Z,6.46
2023-03-28T10:39:24.760Z,6.28
2023-03-28T10:41:54.529Z,6.39
2023-03-28T10:44:29.074Z,6.19
2023-03-28T10:47:02.272Z,6.30
2023-03-28T10:49:43.611Z,6.15
2023-03-28T10:52:12.885Z,5.90
2023-03-28T10:55:07.764Z,5.98
2023-03-28T10:57:36.440Z,6.34
2023-03-28T11:00:22.045Z,5.89
2023-03-28T11:03:22.949Z,5.91
2023-03-28T11:06:08.695Z,6.16
2023-03-28T11:08:47.292Z,6.52
2023-03-28T11:11:37.484Z,6.76
2023-03-28T11:14:33.633Z,7.43
2023-03-28T11:17:14.413Z,7.77
2023-03-28T11:20:09.008Z,7.75
2023-03-28T11:23:10.803Z,8.00
2023-03-28T11:26:00.532Z,7.28
2023-03-28T11:28:59.242Z,6.72
2023-03-28T11:31:33.054Z,6.72
2023-03-28T11:34:10.085Z,6.80
2023-03-28T11:36:51.329Z,6.99
2023-03-28T11:39:36.122Z,7.33
2023-03-28T11:42:10.341Z,7.11
2023-03-28T11:44:47.092Z,6.68
2023-03-28T11:47:22.805Z,6.54
2023-03-28T11:50:03.081Z,6.12
2023-03-28T11:52:53.035Z,5.82
2023-03-28T11:55:45.033Z,5.90
2023-03-28T11:58:25.356Z,6.00
2023-03-28T12:01:04.984Z,6.13
2023-03-28T12:03:43.211Z,6.31
2023-03-28T12:06:13.971Z,6.24
2023-03-28T12:09:02.410Z,6.04
2023-03-28T12:11:38.179Z,5.79
2023-03-28T12:14:25.940Z,5.79
2023-03-28T12:16:55.562Z,6.14
2023-03-28T12:19:32.830Z,6.31
2023-03-28T12:22:06.384Z,6.65
2023-03-28T12:24:46.922Z,6.67
2023-03-28T12:27:27.371Z,6.88
2023-03-28T12:30:10.141Z,6.97
2023-03-28T12:32:46.857Z,7.19
2023-03-28T12:35:15.658Z,7.25
2023-03-28T12:37:58.701Z,7.50
2023-03-28T12:40:59.365Z,7.35
2023-03-28T12:43:49.812Z,7.64
2023-03-28T12:46:28.520Z,7.46
2023-03-28T12:49:02.091Z,7.21
2023-03-28T12:51:35.665Z,7.28
2023-03-28T12:54:23.257Z,7.44
2023-03-28T12:57:07.814Z,7.23
2023-03-28T12:59:39.822Z,6.99
2023-03-28T13:02:36.527Z,7.24
2023-03-28T13:05:24.285Z,7.25
2023-03-28T13:08:27.188Z,6.96
2023-03-28T13:11:14.483Z,7.11
2023-03-28T13:14:13.619Z,7.51
2023-03-28T13:16:46.615Z,7.52
2023-03-28T13:19:18.396Z,7.28
2023-03-28T13:21:56.116Z,6.76
2023-03-28T13:24:28.523Z,6.74
2023-03-28T13:27:00.827Z,6.97
2023-03-28T13:29:49.958Z,7.14
2023-03-28T13:32:26.863Z,6.61
2023-03-28T13:34:57.770Z,6.16
2023-03-28T13:37:28.118Z,5.97
2023-03-28T13:39:59.726Z,5.95
2023-03-28T13:42:28.497Z,5.35
2023-03-28T13:44:58.730Z,5.52
2023-03-28T13:47:36.237Z,5.67
2023-03-28T13:50:30.276Z,5.68
2023-03-28T13:52:57.638Z,5.63
2023-03-28T13:55:26.490Z,5.87
2023-03-28T13:57:54.217Z,6.07
2023-03-28T14:00:25.534Z,6.24
2023-03-28T14:03:07.145Z,6.40
2023-03-28T14:05:36.062Z,6.54
2023-03-28T14:08:12.929Z,6.38
2023-03-28T14:10:42.928Z,6.20
2023-03-28T14:13:31.267Z,6.03
2023-03-28T14:15:58.733Z,5.67
2023-03-28T14:18:26.381Z,5.57
2023-03-28T14:20:56.424Z,5.62
2023-03-28T14:23:30.563Z,5.74
2023-03-28T14:26:01.068Z,5.67
2023-03-28T14:28:32.791Z,5.70
2023-03-28T14:31:00.899Z,5.70
2023-03-28T14:33:34.279Z,5.76
2023-03-28T14:36:04.081Z,5.68
2023-03-28T14:38:38.185Z,5.67
2023-03-28T14:41:34.266Z,5.63
2023-03-28T14:44:03.652Z,5.69
2023-03-28T14:46:33.345Z,5.37
2023-03-28T14:49:03.041Z,5.40
2023-03-28T14:51:42.729Z,5.52
2023-03-28T14:54:23.271Z,5.63
2023-03-28T14:56:51.618Z,5.91
2023-03-28T14:59:20.286Z,5.68
2023-03-28T15:01:52.002Z,5.18
2023-03-28T15:04:21.069Z,4.81
2023-03-28T15:06:55.715Z,4.17
2023-03-28T15:09:34.619Z,3.50
2023-03-28T15:12:08.017Z,2.92
2023-03-28T15:14:41.375Z,2.46
2023-03-28T15:17:17.563Z,2.43
2023-03-28T15:19:50.883Z,2.66
2023-03-28T15:22:27.808Z,3.00
2023-03-28T15:24:56.567Z,3.36
2023-03-28T15:27:28.985Z,3.62
2023-03-28T15:29:57.662Z,3.66
2023-03-28T15:32:26.950Z,3.65
2023-03-28T15:35:01.332Z,3.46
2023-03-28T15:37:29.112Z,3.27
2023-03-28T15:40:12.317Z,3.29
2023-03-28T15:42:39.977Z,3.42
2023-03-28T15:45:14.033Z,3.52
2023-03-28T15:47:42.129Z,3.59
2023-03-28T15:50:14.844Z,3.71
2023-03-28T15:52:43.157Z,3.79
2023-03-28T15:55:19.144Z,3.81
2023-03-28T15:57:47.911Z,3.87
2023-03-28T16:00:34.747Z,3.86
2023-03-28T16:03:20.972Z,3.96
2023-03-28T16:05:52.069Z,3.89
2023-03-28T16:08:23.508Z,3.82
2023-03-28T16:10:50.768Z,3.75
2023-03-28T16:13:26.458Z,3.65
2023-03-28T16:15:54.936Z,3.60
2023-03-28T16:18:25.108Z,3.56
2023-03-28T16:20:52.979Z,3.36
2023-03-28T16:23:22.157Z,3.32
2023-03-28T16:25:58.115Z,3.23
2023-03-28T16:28:27.215Z,3.26
2023-03-28T16:30:54.719Z,3.15
2023-03-28T16:33:22.248Z,3.17
2023-03-28T16:35:49.515Z,3.15
2023-03-28T16:38:17.133Z,3.13
2023-03-28T16:40:45.924Z,3.12
2023-03-28T16:43:15.551Z,3.11
2023-03-28T16:45:49.785Z,3.16
2023-03-28T16:48:17.410Z,3.23
2023-03-28T16:50:55.976Z,3.23
2023-03-28T16:53:23.366Z,3.22
2023-03-28T16:55:52.819Z,3.19
2023-03-28T16:58:20.630Z,3.22
2023-03-28T17:00:50.235Z,3.20
2023-03-28T17:03:18.248Z,3.13
2023-03-28T17:05:45.642Z,3.14
2023-03-28T17:08:13.144Z,3.17
2023-03-28T17:10:43.706Z,3.11
2023-03-28T17:13:11.141Z,3.12
2023-03-28T17:15:38.491Z,3.03
2023-03-28T17:18:06.344Z,3.00
2023-03-28T17:20:34.441Z,2.93
2023-03-28T17:23:01.847Z,2.84
2023-03-28T17:25:29.682Z,2.78
2023-03-28T17:28:01.173Z,2.73
2023-03-28T17:30:29.152Z,2.75
2023-03-28T17:32:57.513Z,2.74
2023-03-28T17:35:25.654Z,2.73
2023-03-28T17:37:53.720Z,2.69
2023-03-28T17:40:27.621Z,2.64
2023-03-28T17:42:57.531Z,2.62
2023-03-28T17:45:27.483Z,2.59
2023-03-28T17:47:56.419Z,2.50
2023-03-28T17:50:25.775Z,2.52
2023-03-28T17:52:54.088Z,2.44
2023-03-28T17:55:23.497Z,2.39
2023-03-28T17:57:57.591Z,2.41
2023-03-28T18:00:33.216Z,2.34
2023-03-28T18:03:02.533Z,2.25
2023-03-28T18:05:39.444Z,2.20
2023-03-28T18:08:09.749Z,2.12
2023-03-28T18:10:42.096Z,2.08
2023-03-28T18:13:10.626Z,2.15
2023-03-28T18:15:41.441Z,2.10
2023-03-28T18:18:13.433Z,2.01
2023-03-28T18:20:49.962Z,1.95
2023-03-28T18:23:19.057Z,1.96
2023-03-28T18:25:56.724Z,1.94
2023-03-28T18:28:28.079Z,1.95
2023-03-28T18:31:13.304Z,1.87
2023-03-28T18:33:47.967Z,1.78
2023-03-28T18:36:16.939Z,1.78
2023-03-28T18:38:48.267Z,1.73
2023-03-28T18:41:20.298Z,1.71
2023-03-28T18:43:52.060Z,1.66
2023-03-28T18:46:28.177Z,1.67
2023-03-28T18:48:58.258Z,1.68
2023-03-28T18:51:29.404Z,1.64
2023-03-28T18:54:00.564Z,1.62
2023-03-28T18:56:29.510Z,1.60
2023-03-28T18:59:18.246Z,1.51
2023-03-28T19:01:54.996Z,1.47
2023-03-28T19:04:24.453Z,1.44
2023-03-28T19:06:54.839Z,1.38
2023-03-28T19:09:23.908Z,1.31
2023-03-28T19:11:55.765Z,1.24
2023-03-28T19:14:25.451Z,1.20
2023-03-28T19:16:55.258Z,1.18
2023-03-28T19:19:25.413Z,1.13
2023-03-28T19:21:55.436Z,1.11
2023-03-28T19:24:24.351Z,1.05
2023-03-28T19:26:53.432Z,1.03
2023-03-28T19:29:23.805Z,0.95
2023-03-28T19:31:54.935Z,0.97
2023-03-28T19:34:24.592Z,0.96
2023-03-28T19:36:52.319Z,0.88
2023-03-28T19:39:22.022Z,0.91
2023-03-28T19:41:51.720Z,0.93
2023-03-28T19:44:23.743Z,0.94
2023-03-28T19:46:52.841Z,0.92
2023-03-28T19:49:28.788Z,0.98
2023-03-28T19:51:59.514Z,0.97
2023-03-28T19:54:27.625Z,0.96
2023-03-28T19:56:56.585Z,1.00
2023-03-28T19:59:25.481Z,1.01
2023-03-28T20:01:54.110Z,1.03
2023-03-28T20:04:23.598Z,1.05
2023-03-28T20:06:51.661Z,1.03
2023-03-28T20:09:19.816Z,1.00
2023-03-28T20:11:48.339Z,1.01
2023-03-28T20:14:20.642Z,1.02
2023-03-28T20:16:49.699Z,1.01
2023-03-28T20:19:18.275Z,1.03
2023-03-28T20:21:46.921Z,1.05
2023-03-28T20:24:18.504Z,1.02
2023-03-28T20:26:47.106Z,0.97
2023-03-28T20:29:16.148Z,0.98
2023-03-28T20:31:44.607Z,0.99
2023-03-28T20:34:12.579Z,1.03
2023-03-28T20:36:42.746Z,0.96
2023-03-28T20:39:11.658Z,0.91
2023-03-28T20:41:40.256Z,0.89
2023-03-28T20:44:08.850Z,0.92
2023-03-28T20:46:39.317Z,0.83
2023-03-28T20:49:06.532Z,0.93
2023-03-28T20:51:38.855Z,0.88
2023-03-28T20:54:06.655Z,0.82
2023-03-28T20:56:34.688Z,0.72
2023-03-28T20:59:04.459Z,0.71
2023-03-28T21:01:32.788Z,0.72
2023-03-28T21:04:01.585Z,0.74
2023-03-28T21:06:30.548Z,0.66
2023-03-28T21:09:00.660Z,0.69
2023-03-28T21:11:30.661Z,0.76
2023-03-28T21:14:00.893Z,0.78
2023-03-28T21:16:30.104Z,0.83
2023-03-28T21:18:58.306Z,0.82
2023-03-28T21:21:29.784Z,0.90
2023-03-28T21:23:57.573Z,1.00
2023-03-28T21:26:24.996Z,0.94
2023-03-28T21:28:52.994Z,0.90
2023-03-28T21:31:26.056Z,0.86
2023-03-28T21:33:56.981Z,0.84
2023-03-28T21:36:25.137Z,0.76
2023-03-28T21:38:53.108Z,0.75
2023-03-28T21:41:20.676Z,0.75
2023-03-28T21:43:48.381Z,0.68
2023-03-28T21:46:18.294Z,0.68
2023-03-28T21:48:48.174Z,0.63
2023-03-28T21:51:17.238Z,0.68
2023-03-28T21:53:44.748Z,0.65
2023-03-28T21:56:14.579Z,0.71
2023-03-28T21:58:42.604Z,0.72
2023-03-28T22:01:12.646Z,0.82
2023-03-28T22:03:40.376Z,0.77
2023-03-28T22:06:08.233Z,0.69
2023-03-28T22:08:35.610Z,0.68
2023-03-28T22:11:10.933Z,0.62
2023-03-28T22:13:38.894Z,0.65
2023-03-28T22:16:09.439Z,0.61
2023-03-28T22:18:39.227Z,0.56
2023-03-28T22:21:09.590Z,0.50
2023-03-28T22:23:36.692Z,0.48
2023-03-28T22:26:04.734Z,0.45
2023-03-28T22:28:32.142Z,0.45
2023-03-28T22:30:59.450Z,0.44
2023-03-28T22:33:31.104Z,0.33
2023-03-28T22:35:58.880Z,0.32
2023-03-28T22:38:26.144Z,0.19
2023-03-28T22:40:53.328Z,0.22
2023-03-28T22:43:20.934Z,0.19
2023-03-28T22:45:48.157Z,0.18
2023-03-28T22:48:15.445Z,0.14
2023-03-28T22:50:44.385Z,0.04
2023-03-28T22:53:12.481Z,-0.02
2023-03-28T22:55:40.254Z,-0.04
2023-03-28T22:58:08.411Z,0.02
2023-03-28T23:00:36.342Z,-0.08
2023-03-28T23:03:04.297Z,-0.16
2023-03-28T23:05:32.064Z,-0.29
2023-03-28T23:08:00.230Z,-0.23
2023-03-28T23:10:27.800Z,-0.22
2023-03-28T23:12:55.279Z,-0.23
2023-03-28T23:15:22.626Z,-0.28
2023-03-28T23:17:50.478Z,-0.40
2023-03-28T23:20:19.227Z,-0.44
2023-03-28T23:22:48.171Z,-0.44
2023-03-28T23:25:18.509Z,-0.35
2023-03-28T23:27:46.462Z,-0.33
2023-03-28T23:30:15.305Z,-0.43
2023-03-28T23:32:42.636Z,-0.53
2023-03-28T23:35:10.846Z,-0.57
2023-03-28T23:37:38.776Z,-0.63
2023-03-28T23:40:10.651Z,-0.71
2023-03-28T23:42:38.154Z,-0.75
2023-03-28T23:45:06.060Z,-0.66
2023-03-28T23:47:33.285Z,-0.69
2023-03-28T23:50:00.926Z,-0.78
2023-03-28T23:52:28.019Z,-0.81
2023-03-28T23:54:55.177Z,-0.83
2023-03-28T23:57:25.324Z,-0.89
2023-03-28T23:59:52.590Z,-0.88
